Time;durP1;ratioP1;P1;durP2;ratioP2;P2;SDS_P1;SDS_P2;PMS_P1;PMS_P2;Temp;Humidity;BMP_temperature;BMP_pressure;BME280_temperature;BME280_humidity;BME280_pressure;Samples;Min_cycle;Max_cycle;Signal;HPM_P1;HPM_P2
2024/03/13 00:00:37;;;;;;;11.37;6.60;;;;;;;6.76;100.00;98134.66;4974107;28;20237;-77
2024/03/13 00:03:03;;;;;;;11.13;6.43;;;;;;;6.76;100.00;98132.03;4974584;28;20587;-77
2024/03/13 00:05:32;;;;;;;12.27;7.20;;;;;;;6.75;100.00;98127.72;4974359;28;20678;-77
2024/03/13 00:07:58;;;;;;;12.70;7.20;;;;;;;6.71;100.00;98123.56;4974463;28;20255;-77
2024/03/13 00:10:26;;;;;;;14.10;6.80;;;;;;;6.73;100.00;98126.94;4974306;28;20227;-77
2024/03/13 00:12:52;;;;;;;13.13;7.03;;;;;;;6.75;100.00;98125.09;4974341;28;20218;-77
2024/03/13 00:15:19;;;;;;;10.97;6.93;;;;;;;6.73;100.00;98118.22;4974300;28;20226;-77
2024/03/13 00:17:45;;;;;;;11.67;6.27;;;;;;;6.69;100.00;98109.66;4974238;28;20222;-77
2024/03/13 00:20:12;;;;;;;9.97;5.90;;;;;;;6.70;100.00;98119.25;4973920;28;20232;-76
2024/03/13 00:22:41;;;;;;;11.63;6.37;;;;;;;6.66;100.00;98107.19;4974018;28;20285;-76
2024/03/13 00:25:11;;;;;;;8.77;5.17;;;;;;;6.64;100.00;98103.81;4974071;28;20295;-76
2024/03/13 00:27:39;;;;;;;10.23;5.63;;;;;;;6.60;100.00;98099.66;4973855;28;20353;-77
2024/03/13 00:30:08;;;;;;;9.07;4.90;;;;;;;6.59;100.00;98092.72;4972412;28;20215;-76
2024/03/13 00:32:42;;;;;;;7.37;4.93;;;;;;;6.57;100.00;98091.94;4974036;28;20212;-75
2024/03/13 00:35:09;;;;;;;9.70;5.47;;;;;;;6.59;100.00;98099.75;4974076;28;20643;-76
2024/03/13 00:37:35;;;;;;;7.40;4.97;;;;;;;6.56;100.00;98092.03;4973991;28;20223;-75
2024/03/13 00:40:04;;;;;;;7.60;4.27;;;;;;;6.56;100.00;98087.63;4973515;28;20238;-76
2024/03/13 00:42:31;;;;;;;6.30;4.17;;;;;;;6.57;100.00;98085.84;4973674;28;20219;-77
2024/03/13 00:44:57;;;;;;;6.40;4.20;;;;;;;6.59;100.00;98076.13;4973524;28;20221;-75
2024/03/13 00:47:24;;;;;;;6.57;4.50;;;;;;;6.55;100.00;98070.19;4973747;28;20231;-75
2024/03/13 00:49:52;;;;;;;6.00;3.63;;;;;;;6.56;100.00;98078.91;4973766;28;20204;-77
2024/03/13 00:52:19;;;;;;;7.87;3.87;;;;;;;6.54;100.00;98071.09;4973293;28;20233;-77
2024/03/13 00:54:46;;;;;;;4.53;3.20;;;;;;;6.50;100.00;98063.47;4973543;28;20212;-77
2024/03/13 00:57:16;;;;;;;8.17;4.13;;;;;;;6.52;100.00;98062.47;4973357;28;20216;-76
2024/03/13 00:59:43;;;;;;;5.07;3.50;;;;;;;6.51;100.00;98060.78;4973576;28;20236;-76
2024/03/13 01:02:10;;;;;;;4.67;3.23;;;;;;;6.44;100.00;98056.78;4972920;28;20237;-76
2024/03/13 01:04:42;;;;;;;5.60;3.20;;;;;;;6.46;100.00;98056.69;4973464;28;20220;-76
2024/03/13 01:07:09;;;;;;;4.77;3.10;;;;;;;6.48;100.00;98060.94;4973115;28;20213;-76
2024/03/13 01:09:35;;;;;;;3.97;2.57;;;;;;;6.47;100.00;98063.66;4973437;28;20219;-76
2024/03/13 01:12:02;;;;;;;3.27;2.43;;;;;;;6.48;100.00;98062.72;4973009;28;20244;-76
2024/03/13 01:14:30;;;;;;;4.27;2.83;;;;;;;6.46;100.00;98073.28;4973317;28;20216;-76
2024/03/13 01:16:58;;;;;;;4.53;2.37;;;;;;;6.44;100.00;98064.66;4973168;28;20223;-76
2024/03/13 01:19:30;;;;;;;3.40;2.40;;;;;;;6.45;100.00;98076.84;4972926;28;20311;-76
2024/03/13 01:22:03;;;;;;;4.07;2.50;;;;;;;6.47;100.00;98063.66;4972647;28;20238;-76
2024/03/13 01:24:31;;;;;;;4.33;2.53;;;;;;;6.50;100.00;98068.72;4972955;28;20207;-76
2024/03/13 01:26:58;;;;;;;3.60;2.23;;;;;;;6.51;100.00;98063.41;4972899;28;20254;-75
2024/03/13 01:29:25;;;;;;;4.27;2.20;;;;;;;6.47;100.00;98064.50;4973083;28;20227;-76
2024/03/13 01:31:56;;;;;;;3.77;2.40;;;;;;;6.46;100.00;98078.56;4972514;28;20236;-76
2024/03/13 01:34:22;;;;;;;2.90;2.40;;;;;;;6.46;100.00;98073.28;4973138;28;20207;-76
2024/03/13 01:39:33;;;;;;;2.50;2.00;;;;;;;6.44;100.00;98071.69;4972900;28;20211;-75
2024/03/13 01:56:21;;;;;;;2.07;1.70;;;;;;;6.29;100.00;98075.97;4972694;28;20710;-75
2024/03/13 01:58:51;;;;;;;2.23;1.60;;;;;;;6.32;100.00;98074.97;4972505;28;20218;-75
2024/03/13 02:04:03;;;;;;;2.30;1.73;;;;;;;6.34;100.00;98068.72;4972377;28;20766;-76
2024/03/13 02:06:31;;;;;;;2.30;1.63;;;;;;;6.35;100.00;98070.41;4972726;28;20581;-76
2024/03/13 02:08:58;;;;;;;2.77;1.93;;;;;;;6.34;100.00;98068.72;4972629;28;20226;-77
2024/03/13 02:11:24;;;;;;;3.03;1.83;;;;;;;6.34;100.00;98060.81;4972172;28;20226;-75
2024/03/13 02:13:51;;;;;;;3.03;1.90;;;;;;;6.32;100.00;98054.81;4972565;28;20218;-75
2024/03/13 02:16:18;;;;;;;1.90;1.70;;;;;;;6.30;100.00;98046.16;4972257;28;20303;-75
2024/03/13 02:18:47;;;;;;;2.47;1.87;;;;;;;6.32;100.00;98049.56;4972527;28;20207;-75
2024/03/13 02:21:15;;;;;;;2.13;1.80;;;;;;;6.32;100.00;98033.81;4972169;28;20643;-76
2024/03/13 02:23:42;;;;;;;2.50;1.80;;;;;;;6.32;100.00;98028.56;4972358;28;20217;-76
2024/03/13 02:26:09;;;;;;;1.87;1.70;;;;;;;6.34;100.00;98031.97;4987237;28;20215;-75
2024/03/13 02:28:36;;;;;;;2.27;1.60;;;;;;;6.35;100.00;98031.03;4987071;28;20207;-75
2024/03/13 02:31:02;;;;;;;4.83;2.43;;;;;;;6.37;100.00;98025.69;4986655;28;20224;-75
2024/03/13 02:33:29;;;;;;;2.30;2.10;;;;;;;6.40;100.00;98025.53;4987181;28;20212;-75
2024/03/13 02:35:56;;;;;;;1.87;1.57;;;;;;;6.43;100.00;98022.75;4987174;28;20227;-75
2024/03/13 02:38:23;;;;;;;3.00;1.90;;;;;;;6.35;100.00;98028.41;4987071;28;20221;-75
2024/03/13 02:40:49;;;;;;;2.70;2.03;;;;;;;6.32;100.00;98025.94;4986825;28;20239;-75
2024/03/13 02:43:16;;;;;;;4.67;2.03;;;;;;;6.35;100.00;98023.16;4987186;28;20283;-75
2024/03/13 02:45:43;;;;;;;2.47;2.10;;;;;;;6.30;100.00;98025.16;4986807;28;20215;-75
2024/03/13 02:48:11;;;;;;;2.27;1.70;;;;;;;6.31;100.00;98019.00;4987114;28;20217;-75
2024/03/13 02:50:40;;;;;;;4.20;1.80;;;;;;;6.34;100.00;98010.97;4986415;28;20227;-75
2024/03/13 02:53:07;;;;;;;2.60;1.57;;;;;;;6.35;100.00;98010.03;4987658;28;20226;-75
2024/03/13 02:55:34;;;;;;;3.10;1.90;;;;;;;6.37;100.00;98016.06;4990576;28;20347;-75
2024/03/13 02:58:01;;;;;;;1.90;1.63;;;;;;;6.37;100.00;98016.06;4990752;28;20307;-75
2024/03/13 03:00:27;;;;;;;6.23;1.70;;;;;;;6.38;100.00;98014.25;4989985;28;20272;-75
2024/03/13 03:02:54;;;;;;;2.13;1.23;;;;;;;6.39;100.00;98014.19;4990678;28;20239;-75
2024/03/13 03:05:21;;;;;;;2.30;1.60;;;;;;;6.41;100.00;98019.38;4990441;28;20274;-75
2024/03/13 03:07:48;;;;;;;2.33;1.53;;;;;;;6.43;100.00;98020.97;4990526;28;20213;-75
2024/03/13 03:10:15;;;;;;;2.07;1.70;;;;;;;6.41;100.00;98025.44;4990086;28;20530;-75
2024/03/13 03:12:43;;;;;;;2.80;1.40;;;;;;;6.42;100.00;98026.31;4990212;28;20702;-75
2024/03/13 03:15:10;;;;;;;3.07;1.50;;;;;;;6.43;100.00;98030.63;4990418;28;20214;-75
2024/03/13 03:17:36;;;;;;;2.10;1.50;;;;;;;6.43;100.00;98026.22;4990445;28;20250;-75
2024/03/13 03:20:03;;;;;;;2.83;1.47;;;;;;;6.42;100.00;98024.50;4990232;28;20207;-75
2024/03/13 03:22:30;;;;;;;1.90;1.50;;;;;;;6.43;100.00;98028.84;4990247;28;20313;-75
2024/03/13 03:24:57;;;;;;;1.67;1.30;;;;;;;6.41;100.00;98033.31;4990311;28;20587;-75
2024/03/13 03:27:24;;;;;;;2.53;1.40;;;;;;;6.38;100.00;98023.00;4989899;28;20215;-75
2024/03/13 03:29:51;;;;;;;1.43;1.10;;;;;;;6.33;100.00;98032.03;4990073;28;20214;-75
2024/03/13 03:32:18;;;;;;;2.80;1.40;;;;;;;6.30;100.00;98034.84;4989748;28;20223;-76
2024/03/13 03:34:45;;;;;;;1.83;1.30;;;;;;;6.26;100.00;98034.16;4989959;28;20207;-76
2024/03/13 03:37:13;;;;;;;1.40;1.20;;;;;;;6.28;100.00;98029.66;4990028;28;20207;-75
2024/03/13 03:39:40;;;;;;;1.50;1.10;;;;;;;6.24;100.00;98030.75;4989516;28;20211;-76
2024/03/13 03:42:07;;;;;;;1.43;1.23;;;;;;;6.23;100.00;98036.94;4989560;28;20611;-75
2024/03/13 03:44:33;;;;;;;1.80;1.20;;;;;;;6.21;100.00;98036.19;4989768;28;20215;-76
2024/03/13 03:47:00;;;;;;;1.20;1.10;;;;;;;6.17;100.00;98045.13;4973684;28;20223;-76
2024/03/13 03:49:26;;;;;;;1.50;1.23;;;;;;;6.09;100.00;98042.06;4989591;28;20219;-76
2024/03/13 03:51:53;;;;;;;1.30;1.00;;;;;;;6.09;100.00;98039.44;4989519;28;20223;-75
2024/03/13 03:54:21;;;;;;;1.17;1.00;;;;;;;6.06;100.00;98039.63;4989485;28;20212;-75
2024/03/13 03:56:48;;;;;;;1.40;1.10;;;;;;;6.07;100.00;98038.69;4973654;28;20308;-75
2024/03/13 03:59:15;;;;;;;1.70;1.07;;;;;;;6.04;100.00;98044.09;4989576;28;20219;-76
2024/03/13 04:01:41;;;;;;;0.93;0.90;;;;;;;6.08;100.00;98035.13;4989159;28;20261;-76
2024/03/13 04:04:08;;;;;;;1.00;0.90;;;;;;;6.06;100.00;98037.00;4989141;28;20222;-76
2024/03/13 04:06:35;;;;;;;4.43;1.20;;;;;;;6.08;100.00;98044.75;4989427;28;20683;-76
2024/03/13 04:09:14;;;;;;;1.17;1.00;;;;;;;6.07;100.00;98043.06;4989213;28;20207;-75
2024/03/13 04:11:40;;;;;;;1.57;1.10;;;;;;;6.05;100.00;98037.91;4987657;28;20237;-75
2024/03/13 04:14:07;;;;;;;1.03;0.93;;;;;;;6.00;100.00;98042.56;4989188;28;20219;-76
2024/03/13 04:16:34;;;;;;;1.67;1.10;;;;;;;5.99;100.00;98046.09;4989566;28;20206;-75
2024/03/13 04:19:00;;;;;;;2.27;0.97;;;;;;;6.02;100.00;98039.84;4989304;28;20217;-76
2024/03/13 04:21:27;;;;;;;0.90;0.73;;;;;;;6.00;100.00;98041.72;4988609;28;20242;-76
2024/03/13 04:23:54;;;;;;;1.17;1.03;;;;;;;5.97;100.00;98042.72;4989356;28;20307;-76
2024/03/13 04:26:21;;;;;;;1.90;1.03;;;;;;;5.98;100.00;98039.16;4988929;28;20242;-76
2024/03/13 04:28:48;;;;;;;1.60;1.30;;;;;;;5.99;100.00;98043.47;4989373;28;20693;-75
2024/03/13 04:31:14;;;;;;;1.87;0.80;;;;;;;5.98;100.00;98046.19;4988608;28;20635;-75
2024/03/13 04:33:42;;;;;;;1.27;1.07;;;;;;;5.99;100.00;98051.34;4989030;28;20226;-75
2024/03/13 04:36:08;;;;;;;1.10;0.80;;;;;;;5.98;100.00;98047.03;4988883;28;20233;-76
2024/03/13 04:38:35;;;;;;;1.20;1.00;;;;;;;6.00;100.00;98052.19;4989122;28;20211;-75
2024/03/13 04:41:02;;;;;;;1.33;0.97;;;;;;;5.98;100.00;98054.91;4988535;28;20727;-75
2024/03/13 04:43:30;;;;;;;1.10;0.90;;;;;;;6.00;100.00;98055.69;4988552;28;20253;-75
2024/03/13 04:45:57;;;;;;;0.93;0.83;;;;;;;5.95;100.00;98049.81;4988601;28;20215;-75
2024/03/13 04:48:25;;;;;;;1.00;0.87;;;;;;;5.94;100.00;98050.75;4988453;28;20211;-75
2024/03/13 04:50:52;;;;;;;1.33;1.00;;;;;;;5.97;100.00;98057.59;4988328;28;20231;-75
2024/03/13 04:53:23;;;;;;;1.00;0.90;;;;;;;5.98;100.00;98060.13;4988663;28;20705;-76
2024/03/13 04:55:49;;;;;;;1.20;1.10;;;;;;;6.04;100.00;98059.00;4988062;28;20222;-75
2024/03/13 04:58:16;;;;;;;1.10;1.00;;;;;;;6.00;100.00;98068.81;4988536;28;20212;-76
2024/03/13 05:00:43;;;;;;;0.90;0.90;;;;;;;5.94;100.00;98079.63;4988056;28;20648;-75
2024/03/13 05:03:10;;;;;;;0.90;0.90;;;;;;;5.96;100.00;98069.88;4988425;28;20217;-75
2024/03/13 05:05:37;;;;;;;1.00;0.83;;;;;;;5.98;100.00;98070.63;4988235;28;20222;-76
2024/03/13 05:08:04;;;;;;;2.00;0.90;;;;;;;5.97;100.00;98074.19;4988446;28;20212;-76
2024/03/13 05:10:31;;;;;;;1.33;1.00;;;;;;;6.01;100.00;98078.38;4987955;28;20278;-75
2024/03/13 05:13:01;;;;;;;2.63;1.10;;;;;;;5.99;100.00;98085.44;4988286;28;20212;-75
2024/03/13 05:15:28;;;;;;;1.47;1.10;;;;;;;5.98;100.00;98078.50;4987053;28;20261;-76
2024/03/13 05:17:55;;;;;;;1.30;0.80;;;;;;;6.01;100.00;98083.59;4972161;28;20234;-76
2024/03/13 05:20:22;;;;;;;1.17;1.07;;;;;;;5.98;100.00;98081.13;4987685;28;20613;-75
2024/03/13 05:22:49;;;;;;;2.03;1.10;;;;;;;6.01;100.00;98080.97;4988071;28;20238;-75
2024/03/13 05:25:19;;;;;;;1.33;0.87;;;;;;;6.00;100.00;98081.91;4971793;28;20211;-75
2024/03/13 05:27:46;;;;;;;0.97;0.87;;;;;;;6.01;100.00;98094.09;4987654;28;20700;-75
2024/03/13 05:30:12;;;;;;;1.40;1.07;;;;;;;6.01;100.00;98091.47;4987525;28;20211;-75
2024/03/13 05:32:39;;;;;;;1.23;0.97;;;;;;;6.06;100.00;98080.75;4987916;28;20207;-76
2024/03/13 05:35:08;;;;;;;0.87;0.83;;;;;;;6.07;100.00;98083.28;4988068;28;20216;-75
2024/03/13 05:37:34;;;;;;;0.80;0.80;;;;;;;6.08;100.00;98092.84;4987799;28;20297;-75
2024/03/13 05:40:11;;;;;;;2.87;1.03;;;;;;;6.02;100.00;98093.16;4987500;28;20246;-75
2024/03/13 05:42:38;;;;;;;1.20;1.10;;;;;;;6.06;100.00;98093.84;4986294;28;20289;-75
2024/03/13 05:45:06;;;;;;;1.10;1.00;;;;;;;6.06;100.00;98097.34;4987825;28;20221;-75
2024/03/13 05:47:33;;;;;;;2.00;1.23;;;;;;;6.11;100.00;98090.06;4987748;28;20207;-76
2024/03/13 05:49:59;;;;;;;1.20;1.03;;;;;;;6.06;100.00;98099.09;4987542;28;20234;-75
2024/03/13 05:52:26;;;;;;;1.57;1.17;;;;;;;6.12;100.00;98099.63;4987305;28;20218;-75
2024/03/13 05:54:52;;;;;;;1.20;1.00;;;;;;;6.10;100.00;98104.09;4987477;28;20210;-75
2024/03/13 05:57:21;;;;;;;1.30;1.10;;;;;;;6.12;100.00;98110.09;4987524;28;20214;-75
2024/03/13 05:59:48;;;;;;;1.10;1.00;;;;;;;6.13;100.00;98103.97;4987110;28;20237;-75
2024/03/13 06:02:15;;;;;;;1.60;1.23;;;;;;;6.13;100.00;98113.59;4987032;28;20241;-76
2024/03/13 06:04:42;;;;;;;2.10;1.83;;;;;;;6.16;100.00;98110.84;4987273;28;20234;-75
2024/03/13 06:07:08;;;;;;;1.63;1.17;;;;;;;6.20;100.00;98105.34;4987631;28;20211;-75
2024/03/13 06:09:36;;;;;;;1.50;1.27;;;;;;;6.23;100.00;98109.56;4987198;28;20582;-75
2024/03/13 06:12:02;;;;;;;1.27;1.13;;;;;;;6.19;100.00;98111.50;4986733;28;20230;-75
2024/03/13 06:14:29;;;;;;;2.57;1.40;;;;;;;6.25;100.00;98115.59;4971165;28;20707;-75
2024/03/13 06:16:56;;;;;;;1.37;1.27;;;;;;;6.26;100.00;98112.03;4987478;28;20672;-77
2024/03/13 06:19:23;;;;;;;1.77;1.43;;;;;;;6.28;100.00;98116.28;4987297;28;20309;-76
2024/03/13 06:21:49;;;;;;;1.73;1.53;;;;;;;6.30;100.00;98116.19;4986850;28;20242;-76
2024/03/13 06:24:20;;;;;;;1.70;1.43;;;;;;;6.30;100.00;98114.41;4987149;28;20218;-75
2024/03/13 06:26:48;;;;;;;3.60;1.63;;;;;;;6.34;100.00;98121.19;4987316;28;20211;-77
2024/03/13 06:32:00;;;;;;;2.97;2.07;;;;;;;6.46;100.00;98120.56;4974857;28;20225;-75
2024/03/13 06:34:27;;;;;;;3.23;2.10;;;;;;;6.50;100.00;98124.72;4991064;28;20216;-76
2024/03/13 06:36:54;;;;;;;3.47;2.53;;;;;;;6.52;100.00;98130.72;4991062;28;20630;-76
2024/03/13 06:39:21;;;;;;;3.40;2.47;;;;;;;6.58;100.00;98130.41;4991557;28;20207;-76
2024/03/13 06:41:48;;;;;;;2.90;2.30;;;;;;;6.58;100.00;98130.41;4990674;28;20246;-76
2024/03/13 06:44:15;;;;;;;3.10;2.47;;;;;;;6.66;100.00;98133.47;4991071;28;20222;-76
2024/03/13 06:46:41;;;;;;;5.07;2.40;;;;;;;6.70;100.00;98128.88;4991111;28;20211;-76
2024/03/13 06:49:08;;;;;;;3.00;2.40;;;;;;;6.76;100.00;98133.81;4991100;28;20222;-77
2024/03/13 06:51:35;;;;;;;2.93;2.63;;;;;;;6.82;100.00;98122.97;4990491;28;20230;-76
2024/03/13 06:54:02;;;;;;;3.07;2.37;;;;;;;6.94;100.00;98127.56;4990957;28;20261;-76
2024/03/13 06:56:28;;;;;;;4.13;3.10;;;;;;;7.02;100.00;98120.94;4990827;28;20291;-76
2024/03/13 06:58:56;;;;;;;4.67;3.00;;;;;;;7.07;100.00;98134.69;4990840;28;20266;-76
2024/03/13 07:01:23;;;;;;;5.23;3.17;;;;;;;7.13;100.00;98129.09;4990150;28;20661;-77
2024/03/13 07:03:49;;;;;;;4.10;3.33;;;;;;;7.18;100.00;98132.31;4991575;28;20219;-81
2024/03/13 07:06:18;;;;;;;3.73;3.30;;;;;;;7.30;100.00;98136.91;4992627;28;20218;-77
2024/03/13 07:08:44;;;;;;;5.50;3.50;;;;;;;7.34;100.00;98134.00;4990263;28;20696;-76
2024/03/13 07:11:13;;;;;;;4.10;3.20;;;;;;;7.38;100.00;98140.78;4990411;28;20227;-74
2024/03/13 07:13:39;;;;;;;4.37;2.97;;;;;;;7.44;100.00;98140.44;4990166;28;20307;-75
2024/03/13 07:16:06;;;;;;;4.23;3.53;;;;;;;7.44;100.00;98129.06;4990162;28;20212;-76
2024/03/13 07:18:33;;;;;;;4.27;2.97;;;;;;;7.49;100.00;98137.56;4990204;28;20218;-76
2024/03/13 07:20:59;;;;;;;4.97;3.77;;;;;;;7.51;100.00;98131.28;4990139;28;20231;-76
2024/03/13 07:23:26;;;;;;;7.77;3.83;;;;;;;7.57;100.00;98133.56;4989988;28;20282;-75
2024/03/13 07:25:55;;;;;;;8.53;4.40;;;;;;;7.67;100.00;98140.00;4990164;28;20669;-76
2024/03/13 07:28:21;;;;;;;6.63;4.60;;;;;;;7.72;100.00;98137.91;4989912;28;20671;-76
2024/03/13 07:30:48;;;;;;;7.63;4.50;;;;;;;7.77;100.00;98142.94;4990493;28;20244;-78
2024/03/13 07:33:15;;;;;;;6.63;4.60;;;;;;;7.75;100.00;98148.28;4990271;28;20209;-75
2024/03/13 07:35:42;;;;;;;6.13;4.30;;;;;;;7.75;100.00;98147.41;4990292;28;20212;-76
2024/03/13 07:38:09;;;;;;;6.50;4.73;;;;;;;7.78;100.00;98152.53;4989946;28;20215;-77
2024/03/13 07:40:37;;;;;;;7.27;4.13;;;;;;;7.83;100.00;98159.19;4989589;28;20635;-76
2024/03/13 07:43:04;;;;;;;7.27;5.00;;;;;;;7.83;100.00;98159.19;4989765;28;20239;-77
2024/03/13 07:45:31;;;;;;;5.53;3.97;;;;;;;7.85;100.00;98161.75;4990270;28;20584;-76
2024/03/13 07:47:58;;;;;;;5.77;4.63;;;;;;;7.87;100.00;98162.50;4989806;28;20217;-77
2024/03/13 07:50:25;;;;;;;5.03;4.47;;;;;;;7.83;100.00;98161.00;4990011;28;20276;-76
2024/03/13 07:52:51;;;;;;;7.13;5.18;;;;;;;7.84;100.00;98165.31;4985407;28;20938;-74
2024/03/13 07:55:18;;;;;;;5.87;4.60;;;;;;;7.86;100.00;98168.69;4955623;28;20216;-73
2024/03/13 07:57:44;;;;;;;5.43;3.90;;;;;;;7.92;100.00;98168.34;4956808;28;20221;-75
2024/03/13 08:00:12;;;;;;;6.33;4.47;;;;;;;7.95;100.00;98169.00;4956349;28;20204;-75
2024/03/13 08:02:39;;;;;;;5.07;4.13;;;;;;;7.93;100.00;98175.28;4972577;28;20614;-75
2024/03/13 08:05:06;;;;;;;6.07;4.33;;;;;;;7.97;100.00;98176.81;4972558;28;20237;-75
2024/03/13 08:07:32;;;;;;;5.77;4.00;;;;;;;7.98;100.00;98175.88;4972967;28;20211;-75
2024/03/13 08:09:59;;;;;;;5.50;3.73;;;;;;;8.05;100.00;98185.13;4971793;28;20323;-75
2024/03/13 08:12:26;;;;;;;5.80;4.07;;;;;;;8.13;100.00;98177.59;4968407;28;20663;-76
2024/03/13 08:14:52;;;;;;;5.20;4.17;;;;;;;8.13;100.00;98188.13;4952946;29;20210;-75
2024/03/13 08:17:19;;;;;;;6.63;3.83;;;;;;;8.15;100.00;98187.13;4953354;28;20223;-77
2024/03/13 08:19:45;;;;;;;7.43;4.23;;;;;;;8.14;100.00;98184.59;4953528;29;20573;-77
2024/03/13 08:22:12;;;;;;;6.00;4.50;;;;;;;8.08;100.00;98190.22;4953049;28;20244;-77
2024/03/13 08:24:39;;;;;;;5.37;4.33;;;;;;;8.08;100.00;98188.41;4955120;28;20589;-76
2024/03/13 08:27:07;;;;;;;5.50;4.17;;;;;;;8.13;100.00;98188.13;4954024;29;20214;-75
2024/03/13 08:29:33;;;;;;;7.30;4.53;;;;;;;8.23;100.00;98194.59;4947141;28;20248;-75
2024/03/13 08:32:00;;;;;;;5.90;4.20;;;;;;;8.27;100.00;98196.13;4951576;28;20229;-75
2024/03/13 08:34:26;;;;;;;4.27;3.60;;;;;;;8.39;100.00;98192.78;4967214;28;20215;-76
2024/03/13 08:36:53;;;;;;;6.97;4.50;;;;;;;8.47;100.00;98198.41;4970962;28;20309;-76
2024/03/13 08:39:26;;;;;;;6.27;4.07;;;;;;;8.48;100.00;98200.09;4967954;28;20697;-76
2024/03/13 08:41:52;;;;;;;5.63;4.30;;;;;;;8.55;100.00;98201.44;4967199;28;20237;-75
2024/03/13 08:44:19;;;;;;;6.40;4.17;;;;;;;8.65;100.00;98197.31;4955026;28;20567;-76
2024/03/13 08:46:45;;;;;;;6.07;4.20;;;;;;;8.74;100.00;98202.00;4955406;28;20225;-75
2024/03/13 08:49:12;;;;;;;6.73;4.47;;;;;;;8.80;100.00;98201.63;4951392;29;20694;-76
2024/03/13 08:51:39;;;;;;;5.63;4.47;;;;;;;8.88;100.00;98209.94;4934242;29;20722;-75
2024/03/13 08:54:06;;;;;;;6.00;4.33;;;;;;;8.97;100.00;98214.63;4936039;29;20222;-75
2024/03/13 08:56:37;;;;;;;5.93;4.30;;;;;;;9.02;100.00;98212.56;4935488;29;20214;-76
2024/03/13 08:59:04;;;;;;;6.53;4.33;;;;;;;9.06;100.00;98214.09;4935868;29;20682;-77
2024/03/13 09:01:31;;;;;;;6.47;4.67;;;;;;;9.18;100.00;98224.72;4936308;29;20229;-76
2024/03/13 09:03:57;;;;;;;7.20;4.63;;;;;;;9.30;100.00;98231.03;4936291;29;20236;-76
2024/03/13 09:06:24;;;;;;;5.20;4.07;;;;;;;9.34;100.00;98233.38;4936813;29;20260;-77
2024/03/13 09:08:50;;;;;;;5.27;4.00;;;;;;;9.36;100.00;98234.09;4936320;29;20215;-77
2024/03/13 09:11:18;;;;;;;5.53;4.10;;;;;;;9.41;100.00;98236.44;4935877;28;20235;-76
2024/03/13 09:13:44;;;;;;;5.30;4.30;;;;;;;9.51;100.00;98232.31;4936516;29;20566;-76
2024/03/13 09:16:14;;;;;;;5.83;4.17;;;;;;;9.60;100.00;98232.56;4936509;29;20234;-76
2024/03/13 09:18:43;;;;;;;4.97;4.33;;;;;;;9.76;100.00;98238.56;4936313;29;20221;-76
2024/03/13 09:21:10;;;;;;;6.07;4.43;;;;;;;9.81;100.00;98241.75;4936012;29;20258;-76
2024/03/13 09:23:37;;;;;;;5.07;4.20;;;;;;;9.78;100.00;98239.31;4935875;28;20324;-76
2024/03/13 09:26:04;;;;;;;5.00;4.33;;;;;;;9.75;100.00;98242.16;4936162;29;20223;-76
2024/03/13 09:28:30;;;;;;;6.07;4.70;;;;;;;9.70;100.00;98246.88;4936191;29;20215;-76
2024/03/13 09:30:57;;;;;;;5.43;4.53;;;;;;;9.61;100.00;98244.81;4935322;29;20229;-76
2024/03/13 09:33:23;;;;;;;7.40;4.83;;;;;;;9.60;100.00;98244.94;4936059;29;20500;-76
2024/03/13 09:35:50;;;;;;;6.80;5.33;;;;;;;9.74;100.00;98255.44;4936092;29;20697;-76
2024/03/13 09:38:17;;;;;;;6.43;4.70;;;;;;;9.65;100.00;98250.72;4936292;29;20217;-77
2024/03/13 09:40:44;;;;;;;7.17;5.10;;;;;;;9.69;100.00;98244.31;4935684;29;20331;-76
2024/03/13 09:43:10;;;;;;;6.40;4.90;;;;;;;9.81;100.00;98252.31;4935286;29;20231;-77
2024/03/13 09:45:38;;;;;;;8.20;4.83;;;;;;;9.77;100.00;98252.59;4935735;29;20214;-76
2024/03/13 09:48:06;;;;;;;8.80;5.27;;;;;;;9.72;100.00;98246.78;4943767;28;20221;-76
2024/03/13 09:50:32;;;;;;;7.10;5.40;;;;;;;9.76;100.00;98248.25;4970362;28;20237;-76
2024/03/13 09:53:00;;;;;;;7.70;5.47;;;;;;;9.64;100.00;98249.03;4970236;28;20730;-77
2024/03/13 09:55:26;;;;;;;6.63;5.43;;;;;;;9.61;100.00;98254.53;4970706;28;20707;-76
2024/03/13 09:57:53;;;;;;;7.57;5.47;;;;;;;9.59;100.00;98257.25;4970698;28;20289;-76
2024/03/13 10:00:20;;;;;;;6.83;5.60;;;;;;;9.66;100.00;98257.72;4970515;28;20217;-76
2024/03/13 10:02:47;;;;;;;7.60;5.03;;;;;;;9.79;100.00;98254.19;4970010;28;20240;-76
2024/03/13 10:05:14;;;;;;;7.30;5.83;;;;;;;9.87;100.00;98266.91;4970342;28;20222;-75
2024/03/13 10:07:40;;;;;;;6.50;5.00;;;;;;;9.99;100.00;98256.41;4971228;28;20214;-75
2024/03/13 10:10:09;;;;;;;8.30;5.33;;;;;;;10.10;100.00;98264.50;4970814;28;20595;-75
2024/03/13 10:12:36;;;;;;;7.57;5.60;;;;;;;10.17;100.00;98254.41;4971049;28;20210;-75
2024/03/13 10:15:06;;;;;;;6.83;5.13;;;;;;;10.17;100.00;98267.59;4971138;28;20215;-75
2024/03/13 10:17:34;;;;;;;6.33;4.17;;;;;;;10.11;100.00;98268.00;4971086;28;20248;-75
2024/03/13 10:20:01;;;;;;;6.77;4.97;;;;;;;10.05;100.00;98260.47;4971016;28;20221;-76
2024/03/13 10:22:28;;;;;;;5.50;4.53;;;;;;;10.13;100.00;98268.72;4970817;28;20626;-76
2024/03/13 10:24:54;;;;;;;5.53;4.50;;;;;;;10.15;100.00;98270.31;4970963;28;20213;-76
2024/03/13 10:27:22;;;;;;;6.80;4.50;;;;;;;10.17;100.00;98272.88;4971346;28;20316;-75
2024/03/13 10:29:48;;;;;;;6.83;4.60;;;;;;;10.32;100.00;98269.22;4971103;28;20224;-76
2024/03/13 10:32:16;;;;;;;6.67;4.73;;;;;;;10.32;100.00;98274.50;4970161;28;20584;-75
2024/03/13 10:34:42;;;;;;;7.73;5.23;;;;;;;10.29;100.00;98269.44;4970846;28;20269;-76
2024/03/13 10:37:11;;;;;;;5.80;4.53;;;;;;;10.25;100.00;98270.56;4971154;28;20223;-76
2024/03/13 10:39:41;;;;;;;5.30;4.50;;;;;;;10.27;100.00;98268.69;4971043;28;20661;-76
2024/03/13 10:42:08;;;;;;;6.33;4.50;;;;;;;10.29;100.00;98267.63;4970343;28;20240;-75
2024/03/13 10:44:35;;;;;;;6.17;4.60;;;;;;;10.38;100.00;98263.53;4970730;28;20228;-75
2024/03/13 10:47:01;;;;;;;5.73;4.30;;;;;;;10.46;100.00;98266.53;4970990;28;21023;-76
2024/03/13 10:49:28;;;;;;;5.43;4.70;;;;;;;10.61;100.00;98268.13;4968399;28;20210;-77
2024/03/13 10:51:56;;;;;;;7.23;5.17;;;;;;;10.65;100.00;98256.41;4951059;28;20228;-76
2024/03/13 10:54:23;;;;;;;6.33;4.63;;;;;;;10.69;100.00;98263.16;4951719;29;20218;-77
2024/03/13 10:56:51;;;;;;;5.90;4.57;;;;;;;10.81;100.00;98257.06;4951772;29;20755;-76
2024/03/13 10:59:18;;;;;;;4.43;4.03;;;;;;;10.82;100.00;98264.88;4951283;29;20318;-76
2024/03/13 11:01:47;;;;;;;4.73;4.17;;;;;;;10.77;100.00;98263.53;4950640;28;20237;-76
2024/03/13 11:04:15;;;;;;;6.50;4.20;;;;;;;10.81;100.00;98263.19;4951102;28;20657;-76
2024/03/13 11:06:41;;;;;;;6.03;4.47;;;;;;;10.77;100.00;98264.34;4950920;28;20209;-77
2024/03/13 11:09:12;;;;;;;4.33;3.80;;;;;;;10.78;100.00;98266.06;4950809;29;20231;-76
2024/03/13 11:11:39;;;;;;;5.53;3.90;;;;;;;10.82;100.00;98264.06;4951186;28;20732;-76
2024/03/13 11:14:06;;;;;;;5.53;4.30;;;;;;;10.85;100.00;98267.34;4952099;28;20207;-76
2024/03/13 11:16:33;;;;;;;4.83;4.13;;;;;;;10.79;100.00;98262.47;4954776;29;20236;-76
2024/03/13 11:18:59;;;;;;;6.33;4.20;;;;;;;10.85;100.00;98261.19;4954987;29;20294;-76
2024/03/13 11:21:27;;;;;;;4.67;3.73;;;;;;;10.87;100.00;98261.94;4954116;28;20245;-75
2024/03/13 11:23:54;;;;;;;5.23;4.50;;;;;;;10.84;100.00;98264.78;4958157;28;20240;-77
2024/03/13 11:26:20;;;;;;;5.00;4.50;;;;;;;10.83;100.00;98265.75;4958025;28;20207;-76
2024/03/13 11:28:47;;;;;;;5.40;4.10;;;;;;;10.82;100.00;98264.06;4958729;28;20592;-76
2024/03/13 11:31:13;;;;;;;5.20;3.63;;;;;;;10.86;100.00;98261.09;4958112;28;20237;-76
2024/03/13 11:33:40;;;;;;;5.50;3.97;;;;;;;10.93;100.00;98261.50;4958359;28;20232;-76
2024/03/13 11:36:09;;;;;;;4.73;4.20;;;;;;;11.04;100.00;98261.63;4942181;28;20207;-76
2024/03/13 11:38:36;;;;;;;6.13;3.97;;;;;;;11.04;100.00;98266.91;4958479;28;20674;-76
2024/03/13 11:41:03;;;;;;;4.43;3.90;;;;;;;11.04;100.00;98264.25;4957748;28;20226;-76
2024/03/13 11:43:29;;;;;;;3.77;3.37;;;;;;;11.06;100.00;98259.75;4958396;28;20234;-75
2024/03/13 11:45:56;;;;;;;5.37;4.20;;;;;;;11.05;100.00;98265.94;4958224;28;20216;-76
2024/03/13 11:48:23;;;;;;;4.23;3.83;;;;;;;11.05;100.00;98260.66;4958192;28;20240;-77
2024/03/13 11:51:07;;;;;;;5.83;4.17;;;;;;;11.13;100.00;98258.34;4957981;28;20236;-79
2024/03/13 11:53:34;;;;;;;5.90;4.17;;;;;;;11.16;100.00;98260.78;4958156;28;20584;-77